sensor_id;sensor_type;location;lat;lon;timestamp;pressure;altitude;pressure_sealevel;temperature;humidity
12666;BME280;58531;59.050;17.416;2023-07-09T00:00:17;101491.19;;;12.85;100.00
12666;BME280;58531;59.050;17.416;2023-07-09T00:02:46;101482.81;;;12.83;100.00
12666;BME280;58531;59.050;17.416;2023-07-09T00:05:18;101484.31;;;12.84;100.00
12666;BME280;58531;59.050;17.416;2023-07-09T00:07:46;101482.69;;;12.87;100.00
12666;BME280;58531;59.050;17.416;2023-07-09T00:10:18;101489.50;;;12.91;100.00
12666;BME280;58531;59.050;17.416;2023-07-09T00:12:47;101496.25;;;12.96;100.00
12666;BME280;58531;59.050;17.416;2023-07-09T00:15:18;101492.28;;;13.00;100.00
12666;BME280;58531;59.050;17.416;2023-07-09T00:17:47;101494.09;;;13.03;100.00
12666;BME280;58531;59.050;17.416;2023-07-09T00:20:17;101495.06;;;13.09;100.00
12666;BME280;58531;59.050;17.416;2023-07-09T00:22:48;101503.75;;;13.13;100.00
12666;BME280;58531;59.050;17.416;2023-07-09T00:25:18;101500.31;;;13.12;100.00
12666;BME280;58531;59.050;17.416;2023-07-09T00:27:49;101509.44;;;13.15;100.00
12666;BME280;58531;59.050;17.416;2023-07-09T00:30:18;101497.75;;;13.21;100.00
12666;BME280;58531;59.050;17.416;2023-07-09T00:32:47;101498.25;;;13.29;100.00
12666;BME280;58531;59.050;17.416;2023-07-09T00:35:15;101494.41;;;13.30;100.00
12666;BME280;58531;59.050;17.416;2023-07-09T00:37:43;101499.63;;;13.33;100.00
12666;BME280;58531;59.050;17.416;2023-07-09T00:40:17;101492.69;;;13.36;100.00
12666;BME280;58531;59.050;17.416;2023-07-09T00:42:46;101487.94;;;13.40;100.00
12666;BME280;58531;59.050;17.416;2023-07-09T00:45:22;101495.44;;;13.45;100.00
12666;BME280;58531;59.050;17.416;2023-07-09T00:47:55;101489.63;;;13.46;100.00
12666;BME280;58531;59.050;17.416;2023-07-09T00:50:34;101486.53;;;13.48;100.00
12666;BME280;58531;59.050;17.416;2023-07-09T00:53:08;101491.34;;;13.53;100.00
12666;BME280;58531;59.050;17.416;2023-07-09T00:55:47;101488.09;;;13.58;100.00
12666;BME280;58531;59.050;17.416;2023-07-09T00:58:17;101491.97;;;13.57;100.00
12666;BME280;58531;59.050;17.416;2023-07-09T01:00:49;101494.97;;;13.59;100.00
12666;BME280;58531;59.050;17.416;2023-07-09T01:03:23;101492.59;;;13.61;100.00
12666;BME280;58531;59.050;17.416;2023-07-09T01:05:56;101494.44;;;13.64;100.00
12666;BME280;58531;59.050;17.416;2023-07-09T01:08:25;101488.63;;;13.65;100.00
12666;BME280;58531;59.050;17.416;2023-07-09T01:10:54;101495.81;;;13.68;100.00
12666;BME280;58531;59.050;17.416;2023-07-09T01:13:22;101495.81;;;13.68;100.00
12666;BME280;58531;59.050;17.416;2023-07-09T01:15:52;101496.16;;;13.70;100.00
12666;BME280;58531;59.050;17.416;2023-07-09T01:18:20;101494.19;;;13.71;100.00
12666;BME280;58531;59.050;17.416;2023-07-09T01:20:47;101502.25;;;13.71;100.00
12666;BME280;58531;59.050;17.416;2023-07-09T01:23:19;101497.13;;;13.64;100.00
12666;BME280;58531;59.050;17.416;2023-07-09T01:25:51;101491.97;;;13.57;100.00
12666;BME280;58531;59.050;17.416;2023-07-09T01:28:20;101491.78;;;13.51;100.00
12666;BME280;58531;59.050;17.416;2023-07-09T01:30:49;101494.06;;;13.40;100.00
12666;BME280;58531;59.050;17.416;2023-07-09T01:33:20;101502.78;;;13.32;100.00
12666;BME280;58531;59.050;17.416;2023-07-09T01:35:48;101501.16;;;13.22;100.00
12666;BME280;58531;59.050;17.416;2023-07-09T01:38:21;101495.69;;;13.13;100.00
12666;BME280;58531;59.050;17.416;2023-07-09T01:40:56;101497.41;;;13.07;100.00
12666;BME280;58531;59.050;17.416;2023-07-09T01:43:29;101491.97;;;12.98;100.00
12666;BME280;58531;59.050;17.416;2023-07-09T01:45:57;101497.88;;;12.93;100.00
12666;BME280;58531;59.050;17.416;2023-07-09T01:48:26;101504.81;;;12.91;100.00
12666;BME280;58531;59.050;17.416;2023-07-09T01:51:07;101499.03;;;12.92;100.00
12666;BME280;58531;59.050;17.416;2023-07-09T01:53:42;101511.16;;;12.97;100.00
12666;BME280;58531;59.050;17.416;2023-07-09T01:56:15;101505.78;;;12.97;100.00
12666;BME280;58531;59.050;17.416;2023-07-09T01:58:42;101510.72;;;12.98;100.00
12666;BME280;58531;59.050;17.416;2023-07-09T02:01:10;101510.72;;;12.98;100.00
12666;BME280;58531;59.050;17.416;2023-07-09T02:03:40;101522.06;;;13.02;100.00
12666;BME280;58531;59.050;17.416;2023-07-09T02:06:07;101516.72;;;13.02;100.00
12666;BME280;58531;59.050;17.416;2023-07-09T02:08:38;101522.06;;;13.02;100.00
12666;BME280;58531;59.050;17.416;2023-07-09T02:11:05;101517.81;;;13.04;100.00
12666;BME280;58531;59.050;17.416;2023-07-09T02:13:33;101512.53;;;13.01;100.00
12666;BME280;58531;59.050;17.416;2023-07-09T02:16:00;101518.66;;;13.01;100.00
12666;BME280;58531;59.050;17.416;2023-07-09T02:18:29;101514.69;;;13.06;100.00
12666;BME280;58531;59.050;17.416;2023-07-09T02:20:56;101515.00;;;13.08;100.00
12666;BME280;58531;59.050;17.416;2023-07-09T02:23:26;101516.09;;;13.10;100.00
12666;BME280;58531;59.050;17.416;2023-07-09T02:25:56;101520.16;;;13.15;100.00
12666;BME280;58531;59.050;17.416;2023-07-09T02:28:23;101513.94;;;13.18;100.00
12666;BME280;58531;59.050;17.416;2023-07-09T02:30:51;101511.47;;;13.23;100.00
12666;BME280;58531;59.050;17.416;2023-07-09T02:33:21;101514.03;;;13.27;100.00
12666;BME280;58531;59.050;17.416;2023-07-09T02:35:51;101517.16;;;13.25;100.00
12666;BME280;58531;59.050;17.416;2023-07-09T02:38:18;101511.88;;;13.22;100.00
12666;BME280;58531;59.050;17.416;2023-07-09T02:40:46;101509.34;;;13.18;100.00
12666;BME280;58531;59.050;17.416;2023-07-09T02:43:17;101512.75;;;13.19;100.00
12666;BME280;58531;59.050;17.416;2023-07-09T02:45:46;101515.97;;;13.26;100.00
12666;BME280;58531;59.050;17.416;2023-07-09T02:48:13;101518.00;;;13.35;100.00
12666;BME280;58531;59.050;17.416;2023-07-09T02:50:40;101525.72;;;13.33;100.00
12666;BME280;58531;59.050;17.416;2023-07-09T02:53:09;101524.88;;;13.36;100.00
12666;BME280;58531;59.050;17.416;2023-07-09T02:55:37;101525.50;;;13.40;100.00
12666;BME280;58531;59.050;17.416;2023-07-09T02:58:05;101523.94;;;13.64;100.00
12666;BME280;58531;59.050;17.416;2023-07-09T03:00:34;101522.03;;;14.62;100.00
12666;BME280;58531;59.050;17.416;2023-07-09T03:03:02;101525.16;;;16.15;100.00
12666;BME280;58531;59.050;17.416;2023-07-09T03:05:30;101526.41;;;17.70;100.00
12666;BME280;58531;59.050;17.416;2023-07-09T03:07:57;101525.19;;;19.10;92.18
12666;BME280;58531;59.050;17.416;2023-07-09T03:10:27;101534.09;;;20.30;81.98
12666;BME280;58531;59.050;17.416;2023-07-09T03:12:55;101537.31;;;21.27;74.43
12666;BME280;58531;59.050;17.416;2023-07-09T03:15:25;101540.91;;;22.07;68.30
12666;BME280;58531;59.050;17.416;2023-07-09T03:17:59;101539.25;;;22.54;64.96
12666;BME280;58531;59.050;17.416;2023-07-09T03:20:27;101540.72;;;22.71;62.94
12666;BME280;58531;59.050;17.416;2023-07-09T03:22:54;101545.91;;;23.24;60.38
12666;BME280;58531;59.050;17.416;2023-07-09T03:25:22;101539.06;;;23.69;58.18
12666;BME280;58531;59.050;17.416;2023-07-09T03:27:51;101551.41;;;24.26;56.29
12666;BME280;58531;59.050;17.416;2023-07-09T03:30:18;101555.38;;;24.66;54.77
12666;BME280;58531;59.050;17.416;2023-07-09T03:32:45;101551.84;;;25.00;53.74
12666;BME280;58531;59.050;17.416;2023-07-09T03:35:16;101547.72;;;25.60;51.88
12666;BME280;58531;59.050;17.416;2023-07-09T03:37:44;101554.97;;;25.15;52.10
12666;BME280;58531;59.050;17.416;2023-07-09T03:40:13;101552.88;;;24.27;55.07
12666;BME280;58531;59.050;17.416;2023-07-09T03:42:48;101534.22;;;22.14;61.65
12666;BME280;58531;59.050;17.416;2023-07-09T03:45:16;101542.22;;;21.59;64.39
12666;BME280;58531;59.050;17.416;2023-07-09T03:47:44;101534.03;;;20.50;68.48
12666;BME280;58531;59.050;17.416;2023-07-09T03:50:14;101541.47;;;19.84;71.25
12666;BME280;58531;59.050;17.416;2023-07-09T03:52:42;101534.00;;;18.91;77.04
12666;BME280;58531;59.050;17.416;2023-07-09T03:55:10;101529.75;;;18.41;80.04
12666;BME280;58531;59.050;17.416;2023-07-09T03:57:39;101521.34;;;18.39;84.09
12666;BME280;58531;59.050;17.416;2023-07-09T04:00:08;101534.75;;;19.60;79.26
12666;BME280;58531;59.050;17.416;2023-07-09T04:02:36;101530.00;;;21.44;71.43
12666;BME280;58531;59.050;17.416;2023-07-09T04:05:04;101535.53;;;23.17;63.96
12666;BME280;58531;59.050;17.416;2023-07-09T04:07:33;101543.03;;;24.54;58.43
12666;BME280;58531;59.050;17.416;2023-07-09T04:10:01;101542.94;;;25.23;55.93
12666;BME280;58531;59.050;17.416;2023-07-09T04:12:28;101540.50;;;26.67;50.25
12666;BME280;58531;59.050;17.416;2023-07-09T04:14:55;101540.75;;;26.95;50.74
12666;BME280;58531;59.050;17.416;2023-07-09T04:17:23;101551.69;;;27.86;48.01
12666;BME280;58531;59.050;17.416;2023-07-09T04:19:52;101554.22;;;27.97;47.96
12666;BME280;58531;59.050;17.416;2023-07-09T04:22:19;101559.28;;;27.93;46.96
12666;BME280;58531;59.050;17.416;2023-07-09T04:24:49;101560.72;;;28.61;45.59
12666;BME280;58531;59.050;17.416;2023-07-09T04:27:17;101560.31;;;28.98;44.74
12666;BME280;58531;59.050;17.416;2023-07-09T04:29:45;101566.13;;;29.14;44.28
12666;BME280;58531;59.050;17.416;2023-07-09T04:32:14;101565.00;;;29.88;42.97
12666;BME280;58531;59.050;17.416;2023-07-09T04:34:42;101563.38;;;30.58;41.36
12666;BME280;58531;59.050;17.416;2023-07-09T04:37:10;101553.41;;;29.04;43.53
12666;BME280;58531;59.050;17.416;2023-07-09T04:39:38;101553.94;;;28.82;44.22
12666;BME280;58531;59.050;17.416;2023-07-09T04:42:11;101565.22;;;29.19;42.90
12666;BME280;58531;59.050;17.416;2023-07-09T04:44:39;101561.06;;;29.61;43.18
12666;BME280;58531;59.050;17.416;2023-07-09T04:47:07;101563.72;;;30.92;39.64
12666;BME280;58531;59.050;17.416;2023-07-09T04:49:36;101567.41;;;30.57;39.56
12666;BME280;58531;59.050;17.416;2023-07-09T04:52:04;101562.59;;;31.25;38.58
12666;BME280;58531;59.050;17.416;2023-07-09T04:54:31;101562.41;;;31.23;37.33
12666;BME280;58531;59.050;17.416;2023-07-09T04:57:00;101568.50;;;31.75;36.92
12666;BME280;58531;59.050;17.416;2023-07-09T04:59:31;101567.25;;;33.23;34.98
12666;BME280;58531;59.050;17.416;2023-07-09T05:02:00;101571.56;;;33.16;35.07
12666;BME280;58531;59.050;17.416;2023-07-09T05:04:27;101570.88;;;32.91;35.53
12666;BME280;58531;59.050;17.416;2023-07-09T05:06:54;101576.25;;;32.41;35.15
12666;BME280;58531;59.050;17.416;2023-07-09T05:09:21;101574.81;;;33.22;33.53
12666;BME280;58531;59.050;17.416;2023-07-09T05:11:49;101571.72;;;33.96;33.43
12666;BME280;58531;59.050;17.416;2023-07-09T05:14:16;101574.09;;;32.80;33.98
12666;BME280;58531;59.050;17.416;2023-07-09T05:16:45;101581.34;;;32.52;34.32
12666;BME280;58531;59.050;17.416;2023-07-09T05:19:12;101587.09;;;33.12;33.91
12666;BME280;58531;59.050;17.416;2023-07-09T05:21:39;101594.97;;;34.26;32.68
12666;BME280;58531;59.050;17.416;2023-07-09T05:24:06;101591.56;;;32.66;34.56
12666;BME280;58531;59.050;17.416;2023-07-09T05:26:34;101592.44;;;33.95;32.96
12666;BME280;58531;59.050;17.416;2023-07-09T05:29:03;101597.06;;;34.35;32.22
12666;BME280;58531;59.050;17.416;2023-07-09T05:31:31;101590.53;;;33.71;31.65
12666;BME280;58531;59.050;17.416;2023-07-09T05:34:00;101584.16;;;33.10;33.63
12666;BME280;58531;59.050;17.416;2023-07-09T05:36:27;101581.41;;;33.61;31.89
12666;BME280;58531;59.050;17.416;2023-07-09T05:38:54;101591.66;;;34.11;31.92
12666;BME280;58531;59.050;17.416;2023-07-09T05:41:21;101586.47;;;33.38;32.20
12666;BME280;58531;59.050;17.416;2023-07-09T05:43:49;101586.53;;;33.13;32.81
12666;BME280;58531;59.050;17.416;2023-07-09T05:46:16;101593.97;;;33.45;33.62
12666;BME280;58531;59.050;17.416;2023-07-09T05:48:45;101594.59;;;33.87;32.26
12666;BME280;58531;59.050;17.416;2023-07-09T05:51:13;101593.38;;;33.80;31.93
12666;BME280;58531;59.050;17.416;2023-07-09T05:53:40;101593.38;;;34.06;31.20
12666;BME280;58531;59.050;17.416;2023-07-09T05:56:08;101593.16;;;34.84;29.85
12666;BME280;58531;59.050;17.416;2023-07-09T05:58:36;101592.59;;;35.04;29.18
12666;BME280;58531;59.050;17.416;2023-07-09T06:01:03;101591.81;;;34.75;29.67
12666;BME280;58531;59.050;17.416;2023-07-09T06:03:30;101591.56;;;34.54;29.58
12666;BME280;58531;59.050;17.416;2023-07-09T06:05:57;101587.63;;;34.48;29.89
12666;BME280;58531;59.050;17.416;2023-07-09T06:08:26;101589.66;;;34.47;30.25
12666;BME280;58531;59.050;17.416;2023-07-09T06:10:54;101588.44;;;34.67;29.06
12666;BME280;58531;59.050;17.416;2023-07-09T06:13:22;101583.03;;;34.33;31.57
12666;BME280;58531;59.050;17.416;2023-07-09T06:15:50;101586.69;;;34.09;30.71
12666;BME280;58531;59.050;17.416;2023-07-09T06:18:18;101587.19;;;33.99;31.56
12666;BME280;58531;59.050;17.416;2023-07-09T06:20:49;101583.59;;;34.68;29.89
12666;BME280;58531;59.050;17.416;2023-07-09T06:23:17;101583.13;;;35.54;28.22
12666;BME280;58531;59.050;17.416;2023-07-09T06:25:46;101587.06;;;35.80;27.30
12666;BME280;58531;59.050;17.416;2023-07-09T06:28:15;101585.63;;;35.79;27.41
12666;BME280;58531;59.050;17.416;2023-07-09T06:30:42;101590.03;;;36.62;25.10
12666;BME280;58531;59.050;17.416;2023-07-09T06:33:10;101580.09;;;36.19;27.01
12666;BME280;58531;59.050;17.416;2023-07-09T06:35:37;101584.84;;;37.19;24.86
12666;BME280;58531;59.050;17.416;2023-07-09T06:38:05;101583.03;;;36.81;25.38
12666;BME280;58531;59.050;17.416;2023-07-09T06:40:32;101581.22;;;35.76;26.99
12666;BME280;58531;59.050;17.416;2023-07-09T06:43:02;101580.50;;;35.28;26.72
12666;BME280;58531;59.050;17.416;2023-07-09T06:45:29;101577.56;;;35.73;27.70
12666;BME280;58531;59.050;17.416;2023-07-09T06:47:57;101583.16;;;34.62;27.54
12666;BME280;58531;59.050;17.416;2023-07-09T06:50:24;101586.03;;;35.19;28.07
12666;BME280;58531;59.050;17.416;2023-07-09T06:52:53;101581.47;;;35.04;28.21
12666;BME280;58531;59.050;17.416;2023-07-09T06:55:20;101583.81;;;35.93;26.14
12666;BME280;58531;59.050;17.416;2023-07-09T06:57:47;101582.19;;;35.99;27.18
12666;BME280;58531;59.050;17.416;2023-07-09T07:00:16;101588.09;;;36.34;26.54
12666;BME280;58531;59.050;17.416;2023-07-09T07:02:43;101586.81;;;35.57;25.99
12666;BME280;58531;59.050;17.416;2023-07-09T07:05:10;101586.47;;;35.53;27.09
12666;BME280;58531;59.050;17.416;2023-07-09T07:07:37;101578.75;;;35.61;28.59
12666;BME280;58531;59.050;17.416;2023-07-09T07:10:04;101584.78;;;36.56;26.31
12666;BME280;58531;59.050;17.416;2023-07-09T07:12:42;101589.59;;;35.38;28.40
12666;BME280;58531;59.050;17.416;2023-07-09T07:15:11;101584.31;;;35.42;27.88
12666;BME280;58531;59.050;17.416;2023-07-09T07:17:40;101586.38;;;35.60;27.48
12666;BME280;58531;59.050;17.416;2023-07-09T07:20:09;101585.63;;;35.79;26.86
12666;BME280;58531;59.050;17.416;2023-07-09T07:22:37;101590.59;;;35.71;27.37
12666;BME280;58531;59.050;17.416;2023-07-09T07:25:06;101593.75;;;34.82;28.74
12666;BME280;58531;59.050;17.416;2023-07-09T07:27:35;101591.47;;;35.45;27.83
12666;BME280;58531;59.050;17.416;2023-07-09T07:30:03;101585.88;;;34.98;27.00
12666;BME280;58531;59.050;17.416;2023-07-09T07:32:30;101589.50;;;33.93;29.23
12666;BME280;58531;59.050;17.416;2023-07-09T07:34:59;101581.75;;;33.65;29.17
12666;BME280;58531;59.050;17.416;2023-07-09T07:37:26;101585.09;;;34.42;28.29
12666;BME280;58531;59.050;17.416;2023-07-09T07:39:53;101586.41;;;34.77;27.44
12666;BME280;58531;59.050;17.416;2023-07-09T07:42:20;101587.19;;;34.87;27.19
12666;BME280;58531;59.050;17.416;2023-07-09T07:44:47;101595.50;;;34.51;28.11
12666;BME280;58531;59.050;17.416;2023-07-09T07:47:14;101593.84;;;34.29;27.79
12666;BME280;58531;59.050;17.416;2023-07-09T07:49:41;101587.88;;;34.42;29.01
12666;BME280;58531;59.050;17.416;2023-07-09T07:52:09;101597.38;;;34.39;27.43
12666;BME280;58531;59.050;17.416;2023-07-09T07:54:36;101582.88;;;33.62;27.50
12666;BME280;58531;59.050;17.416;2023-07-09T07:57:04;101582.41;;;33.22;28.97
12666;BME280;58531;59.050;17.416;2023-07-09T07:59:31;101588.09;;;32.34;30.45
12666;BME280;58531;59.050;17.416;2023-07-09T08:02:00;101592.34;;;31.95;30.93
12666;BME280;58531;59.050;17.416;2023-07-09T08:04:27;101589.81;;;29.88;33.94
12666;BME280;58531;59.050;17.416;2023-07-09T08:06:54;101578.41;;;29.13;36.04
12666;BME280;58531;59.050;17.416;2023-07-09T08:09:22;101585.06;;;28.98;37.50
12666;BME280;58531;59.050;17.416;2023-07-09T08:11:49;101578.50;;;28.80;37.58
12666;BME280;58531;59.050;17.416;2023-07-09T08:14:16;101579.44;;;28.42;39.25
12666;BME280;58531;59.050;17.416;2023-07-09T08:16:44;101583.09;;;29.05;38.06
12666;BME280;58531;59.050;17.416;2023-07-09T08:19:11;101583.78;;;28.58;38.38
12666;BME280;58531;59.050;17.416;2023-07-09T08:21:38;101571.69;;;28.20;40.84
12666;BME280;58531;59.050;17.416;2023-07-09T08:24:05;101579.00;;;27.71;38.70
12666;BME280;58531;59.050;17.416;2023-07-09T08:26:33;101569.03;;;27.29;41.23
12666;BME280;58531;59.050;17.416;2023-07-09T08:29:03;101576.66;;;27.23;42.63
12666;BME280;58531;59.050;17.416;2023-07-09T08:31:30;101580.38;;;26.94;44.60
12666;BME280;58531;59.050;17.416;2023-07-09T08:33:57;101581.72;;;27.32;43.01
12666;BME280;58531;59.050;17.416;2023-07-09T08:36:24;101572.09;;;27.13;42.13
12666;BME280;58531;59.050;17.416;2023-07-09T08:38:51;101571.81;;;27.16;41.10
12666;BME280;58531;59.050;17.416;2023-07-09T08:41:26;101583.56;;;26.98;46.13
12666;BME280;58531;59.050;17.416;2023-07-09T08:44:11;101570.00;;;27.19;41.63
12666;BME280;58531;59.050;17.416;2023-07-09T08:46:49;101565.47;;;27.08;41.27
12666;BME280;58531;59.050;17.416;2023-07-09T08:49:21;101575.38;;;27.11;44.22
12666;BME280;58531;59.050;17.416;2023-07-09T08:51:50;101565.78;;;27.31;42.01
12666;BME280;58531;59.050;17.416;2023-07-09T08:54:25;101566.06;;;27.01;40.96
12666;BME280;58531;59.050;17.416;2023-07-09T08:56:54;101566.69;;;26.32;42.68
12666;BME280;58531;59.050;17.416;2023-07-09T08:59:25;101568.78;;;25.89;44.06
12666;BME280;58531;59.050;17.416;2023-07-09T09:01:56;101574.19;;;25.94;43.98
12666;BME280;58531;59.050;17.416;2023-07-09T09:04:27;101562.44;;;25.99;42.99
12666;BME280;58531;59.050;17.416;2023-07-09T09:07:10;101561.38;;;26.21;42.16
12666;BME280;58531;59.050;17.416;2023-07-09T09:09:47;101565.38;;;26.20;42.11
12666;BME280;58531;59.050;17.416;2023-07-09T09:12:19;101571.53;;;26.57;41.41
12666;BME280;58531;59.050;17.416;2023-07-09T09:14:56;101566.25;;;25.91;41.42
12666;BME280;58531;59.050;17.416;2023-07-09T09:17:25;101577.00;;;25.89;42.75
12666;BME280;58531;59.050;17.416;2023-07-09T09:19:56;101565.44;;;25.96;41.66
12666;BME280;58531;59.050;17.416;2023-07-09T09:22:28;101572.72;;;26.12;41.97
12666;BME280;58531;59.050;17.416;2023-07-09T09:25:01;101573.66;;;25.96;41.14
12666;BME280;58531;59.050;17.416;2023-07-09T09:27:30;101569.66;;;25.97;40.79
12666;BME280;58531;59.050;17.416;2023-07-09T09:29:58;101575.53;;;26.25;41.24
12666;BME280;58531;59.050;17.416;2023-07-09T09:32:26;101571.31;;;26.24;41.69
12666;BME280;58531;59.050;17.416;2023-07-09T09:34:55;101561.28;;;26.26;42.58
12666;BME280;58531;59.050;17.416;2023-07-09T09:37:26;101562.84;;;26.71;45.12
12666;BME280;58531;59.050;17.416;2023-07-09T09:39:54;101564.66;;;26.82;41.47
12666;BME280;58531;59.050;17.416;2023-07-09T09:42:23;101568.66;;;26.81;40.04
12666;BME280;58531;59.050;17.416;2023-07-09T09:44:54;101567.19;;;26.80;41.09
12666;BME280;58531;59.050;17.416;2023-07-09T09:47:25;101560.56;;;26.26;39.63
12666;BME280;58531;59.050;17.416;2023-07-09T09:49:53;101575.59;;;26.19;41.68
12666;BME280;58531;59.050;17.416;2023-07-09T09:52:24;101567.91;;;26.18;39.56
12666;BME280;58531;59.050;17.416;2023-07-09T09:54:55;101563.91;;;26.19;38.29
12666;BME280;58531;59.050;17.416;2023-07-09T09:57:28;101572.47;;;26.28;39.74
12666;BME280;58531;59.050;17.416;2023-07-09T09:59:55;101574.34;;;25.78;40.60
12666;BME280;58531;59.050;17.416;2023-07-09T10:02:24;101572.84;;;25.58;40.10
12666;BME280;58531;59.050;17.416;2023-07-09T10:04:52;101574.34;;;25.78;41.39
12666;BME280;58531;59.050;17.416;2023-07-09T10:07:22;101580.16;;;26.11;40.97
12666;BME280;58531;59.050;17.416;2023-07-09T10:09:52;101566.56;;;25.87;40.19
12666;BME280;58531;59.050;17.416;2023-07-09T10:12:34;101576.63;;;26.16;40.03
12666;BME280;58531;59.050;17.416;2023-07-09T10:15:14;101581.66;;;25.51;39.56
12666;BME280;58531;59.050;17.416;2023-07-09T10:17:53;101575.66;;;25.05;42.02
12666;BME280;58531;59.050;17.416;2023-07-09T10:20:24;101581.44;;;24.96;40.58
12666;BME280;58531;59.050;17.416;2023-07-09T10:22:55;101571.31;;;24.91;40.51
12666;BME280;58531;59.050;17.416;2023-07-09T10:25:33;101582.16;;;25.26;41.15
12666;BME280;58531;59.050;17.416;2023-07-09T10:31:17;101582.69;;;25.91;40.37
12666;BME280;58531;59.050;17.416;2023-07-09T10:33:59;101575.41;;;25.32;41.34
12666;BME280;58531;59.050;17.416;2023-07-09T10:36:38;101576.84;;;24.80;43.32
12666;BME280;58531;59.050;17.416;2023-07-09T10:39:11;101584.25;;;24.56;44.09
12666;BME280;58531;59.050;17.416;2023-07-09T10:41:42;101577.63;;;24.40;43.98
12666;BME280;58531;59.050;17.416;2023-07-09T10:44:13;101571.47;;;24.99;43.20
12666;BME280;58531;59.050;17.416;2023-07-09T10:46:47;101572.25;;;25.47;43.22
12666;BME280;58531;59.050;17.416;2023-07-09T10:49:17;101577.75;;;25.65;43.06
12666;BME280;58531;59.050;17.416;2023-07-09T10:51:50;101577.56;;;24.86;43.33
12666;BME280;58531;59.050;17.416;2023-07-09T10:54:27;101574.63;;;24.49;45.34
12666;BME280;58531;59.050;17.416;2023-07-09T10:57:00;101580.03;;;24.14;45.34
12666;BME280;58531;59.050;17.416;2023-07-09T10:59:32;101572.69;;;23.98;47.54
12666;BME280;58531;59.050;17.416;2023-07-09T11:02:13;101581.00;;;24.17;45.62
12666;BME280;58531;59.050;17.416;2023-07-09T11:04:49;101575.25;;;24.66;45.62
12666;BME280;58531;59.050;17.416;2023-07-09T11:07:23;101579.38;;;25.55;43.75
12666;BME280;58531;59.050;17.416;2023-07-09T11:09:54;101567.22;;;26.30;41.84
12666;BME280;58531;59.050;17.416;2023-07-09T11:12:28;101576.00;;;26.42;39.67
12666;BME280;58531;59.050;17.416;2023-07-09T11:14:59;101578.47;;;26.45;40.74
12666;BME280;58531;59.050;17.416;2023-07-09T11:17:29;101577.53;;;26.06;41.22
12666;BME280;58531;59.050;17.416;2023-07-09T11:20:07;101581.94;;;25.72;40.99
12666;BME280;58531;59.050;17.416;2023-07-09T11:22:38;101572.47;;;25.73;41.41
12666;BME280;58531;59.050;17.416;2023-07-09T11:25:08;101582.84;;;25.32;41.20
12666;BME280;58531;59.050;17.416;2023-07-09T11:27:48;101576.13;;;25.09;42.93
12666;BME280;58531;59.050;17.416;2023-07-09T11:30:20;101572.09;;;25.39;42.16
12666;BME280;58531;59.050;17.416;2023-07-09T11:32:53;101564.91;;;25.79;41.29
12666;BME280;58531;59.050;17.416;2023-07-09T11:35:23;101573.81;;;26.22;40.92
12666;BME280;58531;59.050;17.416;2023-07-09T11:37:51;101565.50;;;26.46;38.66
12666;BME280;58531;59.050;17.416;2023-07-09T11:40:20;101562.09;;;26.71;36.44
12666;BME280;58531;59.050;17.416;2023-07-09T11:42:52;101567.84;;;26.54;35.61
12666;BME280;58531;59.050;17.416;2023-07-09T11:45:23;101559.94;;;26.33;35.92
12666;BME280;58531;59.050;17.416;2023-07-09T11:47:57;101560.47;;;26.31;37.25
12666;BME280;58531;59.050;17.416;2023-07-09T11:50:33;101552.91;;;26.37;37.01
12666;BME280;58531;59.050;17.416;2023-07-09T11:53:04;101557.03;;;26.43;38.52
12666;BME280;58531;59.050;17.416;2023-07-09T11:55:39;101555.09;;;26.26;38.79
12666;BME280;58531;59.050;17.416;2023-07-09T11:58:09;101556.31;;;26.43;38.18
12666;BME280;58531;59.050;17.416;2023-07-09T12:00:39;101547.28;;;26.48;36.67
12666;BME280;58531;59.050;17.416;2023-07-09T12:03:13;101552.72;;;26.66;37.88
12666;BME280;58531;59.050;17.416;2023-07-09T12:05:47;101552.56;;;26.59;36.11
12666;BME280;58531;59.050;17.416;2023-07-09T12:08:16;101552.94;;;26.81;36.35
12666;BME280;58531;59.050;17.416;2023-07-09T12:10:44;101551.38;;;26.86;36.20
12666;BME280;58531;59.050;17.416;2023-07-09T12:13:13;101554.91;;;26.68;36.92
12666;BME280;58531;59.050;17.416;2023-07-09T12:15:40;101550.59;;;26.10;37.32
12666;BME280;58531;59.050;17.416;2023-07-09T12:18:11;101546.84;;;25.52;38.75
12666;BME280;58531;59.050;17.416;2023-07-09T12:20:40;101555.72;;;25.10;38.31
12666;BME280;58531;59.050;17.416;2023-07-09T12:23:18;101547.84;;;25.49;40.60
12666;BME280;58531;59.050;17.416;2023-07-09T12:25:48;101536.53;;;26.00;40.50
12666;BME280;58531;59.050;17.416;2023-07-09T12:28:16;101543.91;;;26.24;37.74
12666;BME280;58531;59.050;17.416;2023-07-09T12:30:45;101532.91;;;26.42;37.94
12666;BME280;58531;59.050;17.416;2023-07-09T12:33:16;101550.47;;;26.34;44.30
12666;BME280;58531;59.050;17.416;2023-07-09T12:35:44;101547.63;;;26.08;45.37
12666;BME280;58531;59.050;17.416;2023-07-09T12:38:18;101538.00;;;26.20;46.53
12666;BME280;58531;59.050;17.416;2023-07-09T12:40:48;101540.66;;;26.07;45.30
12666;BME280;58531;59.050;17.416;2023-07-09T12:43:17;101546.88;;;25.89;39.73
12666;BME280;58531;59.050;17.416;2023-07-09T12:45:46;101548.53;;;25.55;38.66
12666;BME280;58531;59.050;17.416;2023-07-09T12:48:14;101550.50;;;25.36;40.67
12666;BME280;58531;59.050;17.416;2023-07-09T12:50:41;101550.59;;;25.01;40.08
12666;BME280;58531;59.050;17.416;2023-07-09T12:53:14;101542.97;;;25.42;41.10